sensor_id;sensor_type;location;lat;lon;timestamp;P1;durP1;ratioP1;P2;durP2;ratioP2
23290;SDS011;11814;44.686;10.842;2023-08-07T00:00:05;10.75;;;1.85;;
23290;SDS011;11814;44.686;10.842;2023-08-07T00:02:34;11.05;;;2.08;;
23290;SDS011;11814;44.686;10.842;2023-08-07T00:05:00;15.07;;;2.47;;
23290;SDS011;11814;44.686;10.842;2023-08-07T00:07:25;15.48;;;2.58;;
23290;SDS011;11814;44.686;10.842;2023-08-07T00:09:51;9.98;;;1.80;;
23290;SDS011;11814;44.686;10.842;2023-08-07T00:12:17;11.73;;;1.70;;
23290;SDS011;11814;44.686;10.842;2023-08-07T00:14:42;14.05;;;1.98;;
23290;SDS011;11814;44.686;10.842;2023-08-07T00:17:08;8.93;;;2.17;;
23290;SDS011;11814;44.686;10.842;2023-08-07T00:19:34;10.60;;;2.08;;
23290;SDS011;11814;44.686;10.842;2023-08-07T00:21:59;11.05;;;1.95;;
23290;SDS011;11814;44.686;10.842;2023-08-07T00:24:25;10.50;;;2.33;;
23290;SDS011;11814;44.686;10.842;2023-08-07T00:26:51;10.10;;;2.10;;
23290;SDS011;11814;44.686;10.842;2023-08-07T00:29:16;11.43;;;2.28;;
23290;SDS011;11814;44.686;10.842;2023-08-07T00:31:42;10.57;;;2.28;;
23290;SDS011;11814;44.686;10.842;2023-08-07T00:34:07;13.10;;;2.08;;
23290;SDS011;11814;44.686;10.842;2023-08-07T00:36:34;13.43;;;2.17;;
23290;SDS011;11814;44.686;10.842;2023-08-07T00:39:00;12.73;;;2.35;;
23290;SDS011;11814;44.686;10.842;2023-08-07T00:41:28;18.67;;;2.78;;
23290;SDS011;11814;44.686;10.842;2023-08-07T00:43:54;9.70;;;1.88;;
23290;SDS011;11814;44.686;10.842;2023-08-07T00:46:20;8.40;;;2.25;;
23290;SDS011;11814;44.686;10.842;2023-08-07T00:48:46;8.20;;;2.28;;
23290;SDS011;11814;44.686;10.842;2023-08-07T00:51:12;13.55;;;2.47;;
23290;SDS011;11814;44.686;10.842;2023-08-07T00:53:38;7.53;;;2.10;;
23290;SDS011;11814;44.686;10.842;2023-08-07T00:56:05;10.73;;;2.25;;
23290;SDS011;11814;44.686;10.842;2023-08-07T00:58:31;9.60;;;2.00;;
23290;SDS011;11814;44.686;10.842;2023-08-07T01:00:57;7.85;;;2.20;;
23290;SDS011;11814;44.686;10.842;2023-08-07T01:03:23;10.65;;;2.17;;
23290;SDS011;11814;44.686;10.842;2023-08-07T01:05:49;15.50;;;2.00;;
23290;SDS011;11814;44.686;10.842;2023-08-07T01:08:15;7.93;;;1.73;;
23290;SDS011;11814;44.686;10.842;2023-08-07T01:13:38;13.75;;;2.40;;
23290;SDS011;11814;44.686;10.842;2023-08-07T01:16:33;15.95;;;2.70;;
23290;SDS011;11814;44.686;10.842;2023-08-07T01:19:17;9.63;;;2.40;;
23290;SDS011;11814;44.686;10.842;2023-08-07T01:21:49;14.50;;;2.90;;
23290;SDS011;11814;44.686;10.842;2023-08-07T01:24:14;11.88;;;3.40;;
23290;SDS011;11814;44.686;10.842;2023-08-07T01:26:40;12.07;;;3.15;;
23290;SDS011;11814;44.686;10.842;2023-08-07T01:29:12;13.75;;;3.35;;
23290;SDS011;11814;44.686;10.842;2023-08-07T01:31:44;8.98;;;2.47;;
23290;SDS011;11814;44.686;10.842;2023-08-07T01:34:12;9.15;;;2.63;;
23290;SDS011;11814;44.686;10.842;2023-08-07T01:36:43;11.95;;;2.63;;
23290;SDS011;11814;44.686;10.842;2023-08-07T01:39:11;9.32;;;2.47;;
23290;SDS011;11814;44.686;10.842;2023-08-07T01:41:38;11.20;;;2.63;;
23290;SDS011;11814;44.686;10.842;2023-08-07T01:44:04;6.90;;;1.70;;
23290;SDS011;11814;44.686;10.842;2023-08-07T01:46:30;7.80;;;2.05;;
23290;SDS011;11814;44.686;10.842;2023-08-07T01:48:56;9.07;;;2.47;;
23290;SDS011;11814;44.686;10.842;2023-08-07T01:51:21;13.50;;;2.83;;
23290;SDS011;11814;44.686;10.842;2023-08-07T01:53:47;9.30;;;3.03;;
23290;SDS011;11814;44.686;10.842;2023-08-07T01:56:13;9.23;;;2.72;;
23290;SDS011;11814;44.686;10.842;2023-08-07T01:58:38;9.90;;;2.72;;
23290;SDS011;11814;44.686;10.842;2023-08-07T02:01:04;15.45;;;3.13;;
23290;SDS011;11814;44.686;10.842;2023-08-07T02:03:29;9.55;;;3.08;;
23290;SDS011;11814;44.686;10.842;2023-08-07T02:05:55;15.55;;;3.15;;
23290;SDS011;11814;44.686;10.842;2023-08-07T02:08:21;11.73;;;2.90;;
23290;SDS011;11814;44.686;10.842;2023-08-07T02:10:46;9.38;;;2.70;;
23290;SDS011;11814;44.686;10.842;2023-08-07T02:13:12;15.85;;;3.20;;
23290;SDS011;11814;44.686;10.842;2023-08-07T02:15:38;11.27;;;3.30;;
23290;SDS011;11814;44.686;10.842;2023-08-07T02:18:03;13.18;;;3.17;;
23290;SDS011;11814;44.686;10.842;2023-08-07T02:20:29;8.35;;;2.88;;
23290;SDS011;11814;44.686;10.842;2023-08-07T02:22:54;12.35;;;2.80;;
23290;SDS011;11814;44.686;10.842;2023-08-07T02:25:20;16.70;;;2.97;;
23290;SDS011;11814;44.686;10.842;2023-08-07T02:27:46;13.65;;;3.60;;
23290;SDS011;11814;44.686;10.842;2023-08-07T02:30:11;11.15;;;2.95;;
23290;SDS011;11814;44.686;10.842;2023-08-07T02:32:37;11.57;;;2.63;;
23290;SDS011;11814;44.686;10.842;2023-08-07T02:35:03;13.15;;;2.90;;
23290;SDS011;11814;44.686;10.842;2023-08-07T02:37:29;8.57;;;2.35;;
23290;SDS011;11814;44.686;10.842;2023-08-07T02:39:54;11.38;;;3.03;;
23290;SDS011;11814;44.686;10.842;2023-08-07T02:42:20;8.85;;;2.53;;
23290;SDS011;11814;44.686;10.842;2023-08-07T02:44:46;12.27;;;2.88;;
23290;SDS011;11814;44.686;10.842;2023-08-07T02:47:11;12.93;;;2.47;;
23290;SDS011;11814;44.686;10.842;2023-08-07T02:49:37;11.40;;;2.70;;
23290;SDS011;11814;44.686;10.842;2023-08-07T02:52:03;16.52;;;3.10;;
23290;SDS011;11814;44.686;10.842;2023-08-07T02:54:28;9.20;;;2.45;;
23290;SDS011;11814;44.686;10.842;2023-08-07T02:56:54;10.25;;;2.72;;
23290;SDS011;11814;44.686;10.842;2023-08-07T02:59:22;10.38;;;3.10;;
23290;SDS011;11814;44.686;10.842;2023-08-07T03:01:47;9.20;;;2.70;;
23290;SDS011;11814;44.686;10.842;2023-08-07T03:04:14;8.57;;;2.85;;
23290;SDS011;11814;44.686;10.842;2023-08-07T03:06:40;7.75;;;2.78;;
23290;SDS011;11814;44.686;10.842;2023-08-07T03:09:06;9.23;;;2.70;;
23290;SDS011;11814;44.686;10.842;2023-08-07T03:11:31;4.97;;;2.33;;
23290;SDS011;11814;44.686;10.842;2023-08-07T03:13:57;7.13;;;2.60;;
23290;SDS011;11814;44.686;10.842;2023-08-07T03:16:23;7.85;;;2.65;;
23290;SDS011;11814;44.686;10.842;2023-08-07T03:18:48;7.20;;;2.70;;
23290;SDS011;11814;44.686;10.842;2023-08-07T03:21:14;14.02;;;2.90;;
23290;SDS011;11814;44.686;10.842;2023-08-07T03:23:40;7.68;;;2.67;;
23290;SDS011;11814;44.686;10.842;2023-08-07T03:26:06;11.75;;;3.05;;
23290;SDS011;11814;44.686;10.842;2023-08-07T03:28:34;11.90;;;3.10;;
23290;SDS011;11814;44.686;10.842;2023-08-07T03:31:00;9.32;;;2.67;;
23290;SDS011;11814;44.686;10.842;2023-08-07T03:33:26;7.78;;;2.38;;
23290;SDS011;11814;44.686;10.842;2023-08-07T03:35:52;7.53;;;2.30;;
23290;SDS011;11814;44.686;10.842;2023-08-07T03:38:18;8.30;;;2.60;;
23290;SDS011;11814;44.686;10.842;2023-08-07T03:40:43;11.10;;;2.97;;
23290;SDS011;11814;44.686;10.842;2023-08-07T03:43:09;11.18;;;2.95;;
23290;SDS011;11814;44.686;10.842;2023-08-07T03:45:35;6.25;;;2.63;;
23290;SDS011;11814;44.686;10.842;2023-08-07T03:48:00;9.15;;;3.00;;
23290;SDS011;11814;44.686;10.842;2023-08-07T03:50:26;7.10;;;2.60;;
23290;SDS011;11814;44.686;10.842;2023-08-07T03:52:52;9.30;;;2.85;;
23290;SDS011;11814;44.686;10.842;2023-08-07T03:55:20;8.18;;;2.78;;
23290;SDS011;11814;44.686;10.842;2023-08-07T03:57:46;14.63;;;3.08;;
23290;SDS011;11814;44.686;10.842;2023-08-07T04:00:12;7.72;;;3.08;;
23290;SDS011;11814;44.686;10.842;2023-08-07T04:02:38;11.45;;;3.05;;
23290;SDS011;11814;44.686;10.842;2023-08-07T04:05:04;9.88;;;2.95;;
23290;SDS011;11814;44.686;10.842;2023-08-07T04:07:30;10.02;;;2.72;;
23290;SDS011;11814;44.686;10.842;2023-08-07T04:09:55;6.70;;;2.45;;
23290;SDS011;11814;44.686;10.842;2023-08-07T04:12:21;7.40;;;2.55;;
23290;SDS011;11814;44.686;10.842;2023-08-07T04:14:47;8.05;;;2.85;;
23290;SDS011;11814;44.686;10.842;2023-08-07T04:17:12;4.45;;;2.03;;
23290;SDS011;11814;44.686;10.842;2023-08-07T04:19:38;7.85;;;2.42;;
23290;SDS011;11814;44.686;10.842;2023-08-07T04:22:04;9.57;;;2.22;;
23290;SDS011;11814;44.686;10.842;2023-08-07T04:24:29;6.85;;;2.13;;
23290;SDS011;11814;44.686;10.842;2023-08-07T04:26:55;5.22;;;2.15;;
23290;SDS011;11814;44.686;10.842;2023-08-07T04:29:21;10.45;;;2.78;;
23290;SDS011;11814;44.686;10.842;2023-08-07T04:31:46;5.38;;;2.10;;
23290;SDS011;11814;44.686;10.842;2023-08-07T04:34:12;4.85;;;1.48;;
23290;SDS011;11814;44.686;10.842;2023-08-07T04:36:38;5.72;;;1.25;;
23290;SDS011;11814;44.686;10.842;2023-08-07T04:39:04;3.72;;;1.33;;
23290;SDS011;11814;44.686;10.842;2023-08-07T04:41:29;2.63;;;1.13;;
23290;SDS011;11814;44.686;10.842;2023-08-07T04:43:55;4.28;;;1.23;;
23290;SDS011;11814;44.686;10.842;2023-08-07T04:46:20;3.70;;;0.90;;
23290;SDS011;11814;44.686;10.842;2023-08-07T04:48:46;4.05;;;1.30;;
23290;SDS011;11814;44.686;10.842;2023-08-07T04:51:13;2.63;;;1.20;;
23290;SDS011;11814;44.686;10.842;2023-08-07T04:53:39;4.40;;;1.05;;
23290;SDS011;11814;44.686;10.842;2023-08-07T04:56:04;2.58;;;1.05;;
23290;SDS011;11814;44.686;10.842;2023-08-07T04:58:30;1.98;;;0.82;;
23290;SDS011;11814;44.686;10.842;2023-08-07T05:00:56;3.65;;;1.27;;
23290;SDS011;11814;44.686;10.842;2023-08-07T05:03:22;4.07;;;1.13;;
23290;SDS011;11814;44.686;10.842;2023-08-07T05:05:48;4.30;;;1.55;;
23290;SDS011;11814;44.686;10.842;2023-08-07T05:08:14;4.57;;;1.20;;
23290;SDS011;11814;44.686;10.842;2023-08-07T05:10:39;4.13;;;0.73;;
23290;SDS011;11814;44.686;10.842;2023-08-07T05:13:05;2.63;;;1.08;;
23290;SDS011;11814;44.686;10.842;2023-08-07T05:15:30;7.10;;;1.10;;
23290;SDS011;11814;44.686;10.842;2023-08-07T05:17:57;4.65;;;0.80;;
23290;SDS011;11814;44.686;10.842;2023-08-07T05:20:22;2.53;;;1.25;;
23290;SDS011;11814;44.686;10.842;2023-08-07T05:22:48;6.18;;;1.27;;
23290;SDS011;11814;44.686;10.842;2023-08-07T05:25:14;5.80;;;1.27;;
23290;SDS011;11814;44.686;10.842;2023-08-07T05:27:44;5.88;;;1.25;;
23290;SDS011;11814;44.686;10.842;2023-08-07T05:30:10;3.67;;;1.10;;
23290;SDS011;11814;44.686;10.842;2023-08-07T05:32:37;3.00;;;0.98;;
23290;SDS011;11814;44.686;10.842;2023-08-07T05:35:06;5.07;;;1.00;;
23290;SDS011;11814;44.686;10.842;2023-08-07T05:37:33;2.50;;;0.85;;
23290;SDS011;11814;44.686;10.842;2023-08-07T05:39:59;3.08;;;1.13;;
23290;SDS011;11814;44.686;10.842;2023-08-07T05:42:25;1.73;;;0.68;;
23290;SDS011;11814;44.686;10.842;2023-08-07T05:44:50;3.90;;;1.08;;
23290;SDS011;11814;44.686;10.842;2023-08-07T05:47:16;4.57;;;1.13;;
23290;SDS011;11814;44.686;10.842;2023-08-07T05:49:42;2.35;;;1.10;;
23290;SDS011;11814;44.686;10.842;2023-08-07T05:52:07;1.88;;;1.00;;
23290;SDS011;11814;44.686;10.842;2023-08-07T05:54:33;2.35;;;0.88;;
23290;SDS011;11814;44.686;10.842;2023-08-07T05:56:59;4.15;;;0.80;;
23290;SDS011;11814;44.686;10.842;2023-08-07T05:59:25;2.30;;;0.77;;
23290;SDS011;11814;44.686;10.842;2023-08-07T06:01:51;1.98;;;0.70;;
23290;SDS011;11814;44.686;10.842;2023-08-07T06:04:17;3.67;;;0.68;;
23290;SDS011;11814;44.686;10.842;2023-08-07T06:06:42;1.60;;;0.77;;
23290;SDS011;11814;44.686;10.842;2023-08-07T06:09:09;3.92;;;1.30;;
23290;SDS011;11814;44.686;10.842;2023-08-07T06:11:34;1.60;;;0.70;;
23290;SDS011;11814;44.686;10.842;2023-08-07T06:14:00;2.17;;;0.70;;
23290;SDS011;11814;44.686;10.842;2023-08-07T06:16:26;3.08;;;0.85;;
23290;SDS011;11814;44.686;10.842;2023-08-07T06:18:52;2.10;;;1.20;;
23290;SDS011;11814;44.686;10.842;2023-08-07T06:21:18;2.05;;;0.80;;
23290;SDS011;11814;44.686;10.842;2023-08-07T06:23:45;3.00;;;0.43;;
23290;SDS011;11814;44.686;10.842;2023-08-07T06:26:11;1.95;;;0.70;;
23290;SDS011;11814;44.686;10.842;2023-08-07T06:28:38;2.53;;;0.80;;
23290;SDS011;11814;44.686;10.842;2023-08-07T06:31:04;2.33;;;0.50;;
23290;SDS011;11814;44.686;10.842;2023-08-07T06:33:31;2.95;;;0.70;;
23290;SDS011;11814;44.686;10.842;2023-08-07T06:35:58;3.72;;;0.50;;
23290;SDS011;11814;44.686;10.842;2023-08-07T06:38:24;3.67;;;0.40;;
23290;SDS011;11814;44.686;10.842;2023-08-07T06:40:50;1.50;;;0.35;;
23290;SDS011;11814;44.686;10.842;2023-08-07T06:43:16;0.93;;;0.30;;
23290;SDS011;11814;44.686;10.842;2023-08-07T06:45:42;1.35;;;0.30;;
23290;SDS011;11814;44.686;10.842;2023-08-07T06:48:07;1.85;;;0.40;;
23290;SDS011;11814;44.686;10.842;2023-08-07T06:50:33;0.73;;;0.40;;
23290;SDS011;11814;44.686;10.842;2023-08-07T06:52:59;0.68;;;0.38;;
23290;SDS011;11814;44.686;10.842;2023-08-07T06:55:25;1.58;;;0.40;;
23290;SDS011;11814;44.686;10.842;2023-08-07T06:57:51;2.00;;;0.47;;
23290;SDS011;11814;44.686;10.842;2023-08-07T07:00:16;2.70;;;0.70;;
23290;SDS011;11814;44.686;10.842;2023-08-07T07:02:42;4.32;;;0.70;;
23290;SDS011;11814;44.686;10.842;2023-08-07T07:05:08;1.27;;;0.30;;
23290;SDS011;11814;44.686;10.842;2023-08-07T07:07:34;1.55;;;0.65;;
23290;SDS011;11814;44.686;10.842;2023-08-07T07:10:00;5.45;;;0.30;;
23290;SDS011;11814;44.686;10.842;2023-08-07T07:12:29;5.30;;;0.55;;
23290;SDS011;11814;44.686;10.842;2023-08-07T07:14:55;2.05;;;0.30;;
23290;SDS011;11814;44.686;10.842;2023-08-07T07:17:20;0.50;;;0.30;;
23290;SDS011;11814;44.686;10.842;2023-08-07T07:19:46;4.10;;;0.50;;
23290;SDS011;11814;44.686;10.842;2023-08-07T07:22:12;1.30;;;0.30;;
23290;SDS011;11814;44.686;10.842;2023-08-07T07:24:38;2.13;;;0.47;;
23290;SDS011;11814;44.686;10.842;2023-08-07T07:27:04;2.65;;;0.40;;
23290;SDS011;11814;44.686;10.842;2023-08-07T07:29:29;3.20;;;0.20;;
23290;SDS011;11814;44.686;10.842;2023-08-07T07:31:55;0.95;;;0.50;;
23290;SDS011;11814;44.686;10.842;2023-08-07T07:34:21;3.90;;;0.35;;
23290;SDS011;11814;44.686;10.842;2023-08-07T07:36:47;5.20;;;0.55;;
23290;SDS011;11814;44.686;10.842;2023-08-07T07:39:13;4.00;;;0.57;;
23290;SDS011;11814;44.686;10.842;2023-08-07T07:41:38;1.80;;;0.40;;
23290;SDS011;11814;44.686;10.842;2023-08-07T07:44:04;3.53;;;0.40;;
23290;SDS011;11814;44.686;10.842;2023-08-07T07:46:30;2.67;;;0.40;;
23290;SDS011;11814;44.686;10.842;2023-08-07T07:48:57;0.57;;;0.32;;
23290;SDS011;11814;44.686;10.842;2023-08-07T07:51:24;1.55;;;0.40;;
23290;SDS011;11814;44.686;10.842;2023-08-07T07:53:50;2.47;;;0.28;;
23290;SDS011;11814;44.686;10.842;2023-08-07T07:56:16;1.27;;;0.30;;
23290;SDS011;11814;44.686;10.842;2023-08-07T07:58:41;1.02;;;0.40;;
23290;SDS011;11814;44.686;10.842;2023-08-07T08:01:07;1.10;;;0.35;;
23290;SDS011;11814;44.686;10.842;2023-08-07T08:03:33;2.15;;;0.50;;
23290;SDS011;11814;44.686;10.842;2023-08-07T08:05:59;4.90;;;0.40;;
23290;SDS011;11814;44.686;10.842;2023-08-07T08:08:24;1.92;;;0.40;;
23290;SDS011;11814;44.686;10.842;2023-08-07T08:10:51;1.20;;;0.40;;
23290;SDS011;11814;44.686;10.842;2023-08-07T08:13:17;1.17;;;0.30;;
23290;SDS011;11814;44.686;10.842;2023-08-07T08:15:43;3.03;;;0.30;;
23290;SDS011;11814;44.686;10.842;2023-08-07T08:18:09;1.20;;;0.38;;
23290;SDS011;11814;44.686;10.842;2023-08-07T08:20:36;2.10;;;0.40;;
23290;SDS011;11814;44.686;10.842;2023-08-07T08:23:02;2.05;;;0.30;;
23290;SDS011;11814;44.686;10.842;2023-08-07T08:25:28;2.75;;;0.40;;
23290;SDS011;11814;44.686;10.842;2023-08-07T08:27:53;1.30;;;0.28;;
23290;SDS011;11814;44.686;10.842;2023-08-07T08:30:19;0.52;;;0.20;;
23290;SDS011;11814;44.686;10.842;2023-08-07T08:32:45;3.30;;;0.30;;
23290;SDS011;11814;44.686;10.842;2023-08-07T08:35:11;1.02;;;0.40;;
23290;SDS011;11814;44.686;10.842;2023-08-07T08:37:37;1.83;;;0.20;;
23290;SDS011;11814;44.686;10.842;2023-08-07T08:40:02;3.65;;;0.40;;
23290;SDS011;11814;44.686;10.842;2023-08-07T08:42:28;0.77;;;0.20;;
23290;SDS011;11814;44.686;10.842;2023-08-07T08:44:55;2.67;;;0.20;;
23290;SDS011;11814;44.686;10.842;2023-08-07T08:47:25;2.90;;;0.50;;
23290;SDS011;11814;44.686;10.842;2023-08-07T08:49:56;1.75;;;0.22;;
23290;SDS011;11814;44.686;10.842;2023-08-07T08:52:28;0.93;;;0.17;;
23290;SDS011;11814;44.686;10.842;2023-08-07T08:54:56;1.27;;;0.28;;
23290;SDS011;11814;44.686;10.842;2023-08-07T08:57:22;0.95;;;0.10;;
23290;SDS011;11814;44.686;10.842;2023-08-07T08:59:50;1.70;;;0.30;;
23290;SDS011;11814;44.686;10.842;2023-08-07T09:02:16;0.40;;;0.20;;
23290;SDS011;11814;44.686;10.842;2023-08-07T09:04:43;3.30;;;0.25;;
23290;SDS011;11814;44.686;10.842;2023-08-07T09:07:10;0.50;;;0.20;;
23290;SDS011;11814;44.686;10.842;2023-08-07T09:09:38;0.22;;;0.10;;
23290;SDS011;11814;44.686;10.842;2023-08-07T09:12:06;7.82;;;0.50;;
23290;SDS011;11814;44.686;10.842;2023-08-07T09:14:38;0.52;;;0.20;;
23290;SDS011;11814;44.686;10.842;2023-08-07T09:17:06;2.25;;;0.17;;
23290;SDS011;11814;44.686;10.842;2023-08-07T09:19:33;1.98;;;0.10;;
23290;SDS011;11814;44.686;10.842;2023-08-07T09:21:58;0.40;;;0.20;;
23290;SDS011;11814;44.686;10.842;2023-08-07T09:24:24;1.85;;;0.20;;
23290;SDS011;11814;44.686;10.842;2023-08-07T09:26:52;1.58;;;0.15;;
23290;SDS011;11814;44.686;10.842;2023-08-07T09:29:20;0.68;;;0.17;;
23290;SDS011;11814;44.686;10.842;2023-08-07T09:31:47;0.60;;;0.20;;
23290;SDS011;11814;44.686;10.842;2023-08-07T09:34:12;1.38;;;0.30;;
23290;SDS011;11814;44.686;10.842;2023-08-07T09:36:41;1.52;;;0.30;;
23290;SDS011;11814;44.686;10.842;2023-08-07T09:39:07;2.28;;;0.20;;
23290;SDS011;11814;44.686;10.842;2023-08-07T09:41:33;1.85;;;0.10;;
23290;SDS011;11814;44.686;10.842;2023-08-07T09:44:05;1.27;;;0.20;;
23290;SDS011;11814;44.686;10.842;2023-08-07T09:46:40;0.45;;;0.15;;
23290;SDS011;11814;44.686;10.842;2023-08-07T09:49:09;0.70;;;0.20;;
23290;SDS011;11814;44.686;10.842;2023-08-07T09:51:45;1.45;;;0.17;;
23290;SDS011;11814;44.686;10.842;2023-08-07T09:54:12;1.05;;;0.20;;
23290;SDS011;11814;44.686;10.842;2023-08-07T09:56:39;1.52;;;0.30;;
23290;SDS011;11814;44.686;10.842;2023-08-07T09:59:05;0.28;;;0.20;;
23290;SDS011;11814;44.686;10.842;2023-08-07T10:01:33;1.48;;;0.30;;
23290;SDS011;11814;44.686;10.842;2023-08-07T10:04:03;1.02;;;0.15;;
23290;SDS011;11814;44.686;10.842;2023-08-07T10:06:30;0.40;;;0.20;;
23290;SDS011;11814;44.686;10.842;2023-08-07T10:08:56;1.75;;;0.25;;
23290;SDS011;11814;44.686;10.842;2023-08-07T10:11:22;0.55;;;0.17;;
23290;SDS011;11814;44.686;10.842;2023-08-07T10:13:48;1.75;;;0.30;;
23290;SDS011;11814;44.686;10.842;2023-08-07T10:16:15;1.25;;;0.15;;
23290;SDS011;11814;44.686;10.842;2023-08-07T10:18:40;0.68;;;0.13;;
23290;SDS011;11814;44.686;10.842;2023-08-07T10:21:06;2.63;;;0.20;;
23290;SDS011;11814;44.686;10.842;2023-08-07T10:23:35;0.57;;;0.28;;
23290;SDS011;11814;44.686;10.842;2023-08-07T10:26:04;0.55;;;0.20;;
23290;SDS011;11814;44.686;10.842;2023-08-07T10:28:33;3.67;;;0.30;;
23290;SDS011;11814;44.686;10.842;2023-08-07T10:31:02;1.38;;;0.17;;
23290;SDS011;11814;44.686;10.842;2023-08-07T10:33:29;0.80;;;0.20;;
23290;SDS011;11814;44.686;10.842;2023-08-07T10:35:57;2.05;;;0.20;;
23290;SDS011;11814;44.686;10.842;2023-08-07T10:38:24;2.53;;;0.20;;
23290;SDS011;11814;44.686;10.842;2023-08-07T10:43:28;1.73;;;0.30;;
23290;SDS011;11814;44.686;10.842;2023-08-07T10:48:53;2.45;;;0.40;;
23290;SDS011;11814;44.686;10.842;2023-08-07T10:51:24;1.75;;;0.22;;
23290;SDS011;11814;44.686;10.842;2023-08-07T10:53:55;1.50;;;0.20;;
23290;SDS011;11814;44.686;10.842;2023-08-07T10:56:34;4.35;;;0.38;;
23290;SDS011;11814;44.686;10.842;2023-08-07T10:59:09;1.17;;;0.10;;
23290;SDS011;11814;44.686;10.842;2023-08-07T11:06:36;2.15;;;0.20;;
23290;SDS011;11814;44.686;10.842;2023-08-07T11:09:04;1.05;;;0.10;;
23290;SDS011;11814;44.686;10.842;2023-08-07T11:14:13;0.85;;;0.10;;
23290;SDS011;11814;44.686;10.842;2023-08-07T11:16:41;0.60;;;0.20;;
23290;SDS011;11814;44.686;10.842;2023-08-07T11:19:07;2.35;;;0.20;;
23290;SDS011;11814;44.686;10.842;2023-08-07T11:21:34;0.38;;;0.17;;
23290;SDS011;11814;44.686;10.842;2023-08-07T11:24:00;3.70;;;0.30;;
23290;SDS011;11814;44.686;10.842;2023-08-07T11:26:26;0.32;;;0.10;;
23290;SDS011;11814;44.686;10.842;2023-08-07T11:28:53;0.63;;;0.20;;
23290;SDS011;11814;44.686;10.842;2023-08-07T11:31:19;0.47;;;0.28;;
23290;SDS011;11814;44.686;10.842;2023-08-07T11:33:45;1.23;;;0.17;;
23290;SDS011;11814;44.686;10.842;2023-08-07T11:36:11;1.05;;;0.20;;
23290;SDS011;11814;44.686;10.842;2023-08-07T11:38:41;0.93;;;0.20;;
23290;SDS011;11814;44.686;10.842;2023-08-07T11:41:08;1.77;;;0.30;;
23290;SDS011;11814;44.686;10.842;2023-08-07T11:43:35;2.33;;;0.40;;
23290;SDS011;11814;44.686;10.842;2023-08-07T11:46:03;1.00;;;0.40;;
23290;SDS011;11814;44.686;10.842;2023-08-07T11:48:31;1.40;;;0.30;;
23290;SDS011;11814;44.686;10.842;2023-08-07T11:50:58;1.52;;;0.30;;
23290;SDS011;11814;44.686;10.842;2023-08-07T11:53:25;0.40;;;0.20;;
23290;SDS011;11814;44.686;10.842;2023-08-07T11:58:25;1.77;;;0.20;;
23290;SDS011;11814;44.686;10.842;2023-08-07T12:00:52;0.25;;;0.10;;
23290;SDS011;11814;44.686;10.842;2023-08-07T12:05:55;0.60;;;0.20;;
23290;SDS011;11814;44.686;10.842;2023-08-07T12:08:21;0.50;;;0.30;;
23290;SDS011;11814;44.686;10.842;2023-08-07T12:10:51;0.30;;;0.10;;
23290;SDS011;11814;44.686;10.842;2023-08-07T12:13:20;0.70;;;0.20;;
23290;SDS011;11814;44.686;10.842;2023-08-07T12:15:56;2.17;;;0.32;;
23290;SDS011;11814;44.686;10.842;2023-08-07T12:18:23;0.30;;;0.20;;
23290;SDS011;11814;44.686;10.842;2023-08-07T12:20:51;0.45;;;0.22;;
23290;SDS011;11814;44.686;10.842;2023-08-07T12:23:17;5.78;;;0.22;;
23290;SDS011;11814;44.686;10.842;2023-08-07T12:25:46;0.40;;;0.10;;
23290;SDS011;11814;44.686;10.842;2023-08-07T12:28:12;1.05;;;0.30;;
23290;SDS011;11814;44.686;10.842;2023-08-07T12:30:38;1.75;;;0.30;;
23290;SDS011;11814;44.686;10.842;2023-08-07T12:33:04;0.95;;;0.30;;
23290;SDS011;11814;44.686;10.842;2023-08-07T12:35:31;2.53;;;0.40;;
23290;SDS011;11814;44.686;10.842;2023-08-07T12:37:57;0.73;;;0.30;;
23290;SDS011;11814;44.686;10.842;2023-08-07T12:40:22;2.00;;;0.20;;
23290;SDS011;11814;44.686;10.842;2023-08-07T12:42:51;1.52;;;0.20;;
23290;SDS011;11814;44.686;10.842;2023-08-07T12:45:17;1.40;;;0.10;;
23290;SDS011;11814;44.686;10.842;2023-08-07T12:47:44;0.75;;;0.28;;
23290;SDS011;11814;44.686;10.842;2023-08-07T12:50:11;1.38;;;0.25;;
23290;SDS011;11814;44.686;10.842;2023-08-07T12:52:37;1.52;;;0.30;;
23290;SDS011;11814;44.686;10.842;2023-08-07T12:55:02;5.90;;;0.30;;
23290;SDS011;11814;44.686;10.842;2023-08-07T12:57:29;2.25;;;0.10;;
23290;SDS011;11814;44.686;10.842;2023-08-07T12:59:54;3.47;;;0.20;;
23290;SDS011;11814;44.686;10.842;2023-08-07T13:02:20;1.58;;;0.30;;
23290;SDS011;11814;44.686;10.842;2023-08-07T13:04:46;1.83;;;0.20;;
23290;SDS011;11814;44.686;10.842;2023-08-07T13:07:11;1.27;;;0.13;;
23290;SDS011;11814;44.686;10.842;2023-08-07T13:09:37;2.22;;;0.30;;
23290;SDS011;11814;44.686;10.842;2023-08-07T13:12:03;1.85;;;0.20;;
23290;SDS011;11814;44.686;10.842;2023-08-07T13:14:29;0.30;;;0.20;;
23290;SDS011;11814;44.686;10.842;2023-08-07T13:16:55;0.82;;;0.20;;
23290;SDS011;11814;44.686;10.842;2023-08-07T13:19:21;1.67;;;0.20;;
23290;SDS011;11814;44.686;10.842;2023-08-07T13:21:46;1.27;;;0.20;;
23290;SDS011;11814;44.686;10.842;2023-08-07T13:24:12;3.30;;;0.20;;
23290;SDS011;11814;44.686;10.842;2023-08-07T13:26:38;2.20;;;0.40;;
23290;SDS011;11814;44.686;10.842;2023-08-07T13:29:09;0.30;;;0.20;;
23290;SDS011;11814;44.686;10.842;2023-08-07T13:31:35;0.88;;;0.10;;
23290;SDS011;11814;44.686;10.842;2023-08-07T13:34:01;0.60;;;0.20;;
23290;SDS011;11814;44.686;10.842;2023-08-07T13:36:32;0.82;;;0.30;;
23290;SDS011;11814;44.686;10.842;2023-08-07T13:38:58;0.85;;;0.20;;
23290;SDS011;11814;44.686;10.842;2023-08-07T13:41:25;0.30;;;0.15;;
23290;SDS011;11814;44.686;10.842;2023-08-07T13:43:51;2.05;;;0.40;;
23290;SDS011;11814;44.686;10.842;2023-08-07T13:46:17;1.00;;;0.15;;
23290;SDS011;11814;44.686;10.842;2023-08-07T13:48:43;0.77;;;0.20;;
23290;SDS011;11814;44.686;10.842;2023-08-07T13:51:10;0.57;;;0.28;;
23290;SDS011;11814;44.686;10.842;2023-08-07T13:53:35;0.55;;;0.10;;
23290;SDS011;11814;44.686;10.842;2023-08-07T13:56:01;0.75;;;0.13;;
23290;SDS011;11814;44.686;10.842;2023-08-07T13:58:27;1.40;;;0.20;;
23290;SDS011;11814;44.686;10.842;2023-08-07T14:00:53;3.03;;;0.30;;
23290;SDS011;11814;44.686;10.842;2023-08-07T14:03:19;1.83;;;0.20;;
23290;SDS011;11814;44.686;10.842;2023-08-07T14:05:45;1.65;;;0.20;;
23290;SDS011;11814;44.686;10.842;2023-08-07T14:08:11;0.65;;;0.30;;
23290;SDS011;11814;44.686;10.842;2023-08-07T14:10:36;0.52;;;0.30;;
23290;SDS011;11814;44.686;10.842;2023-08-07T14:13:04;0.43;;;0.20;;
23290;SDS011;11814;44.686;10.842;2023-08-07T14:15:30;1.45;;;0.20;;
23290;SDS011;11814;44.686;10.842;2023-08-07T14:17:56;2.33;;;0.60;;
23290;SDS011;11814;44.686;10.842;2023-08-07T14:20:22;1.90;;;0.38;;
23290;SDS011;11814;44.686;10.842;2023-08-07T14:22:49;2.30;;;0.25;;
23290;SDS011;11814;44.686;10.842;2023-08-07T14:25:15;1.05;;;0.20;;
23290;SDS011;11814;44.686;10.842;2023-08-07T14:27:41;2.33;;;0.35;;
23290;SDS011;11814;44.686;10.842;2023-08-07T14:30:07;0.95;;;0.10;;
23290;SDS011;11814;44.686;10.842;2023-08-07T14:32:33;0.43;;;0.20;;
23290;SDS011;11814;44.686;10.842;2023-08-07T14:34:58;1.05;;;0.30;;
23290;SDS011;11814;44.686;10.842;2023-08-07T14:37:24;0.82;;;0.28;;
23290;SDS011;11814;44.686;10.842;2023-08-07T14:39:50;0.68;;;0.20;;
23290;SDS011;11814;44.686;10.842;2023-08-07T14:42:15;1.80;;;0.17;;
23290;SDS011;11814;44.686;10.842;2023-08-07T14:44:41;3.28;;;0.20;;
23290;SDS011;11814;44.686;10.842;2023-08-07T14:47:07;0.50;;;0.20;;
23290;SDS011;11814;44.686;10.842;2023-08-07T14:49:32;3.08;;;0.20;;